sensor_id;sensor_type;location;lat;lon;timestamp;P1;durP1;ratioP1;P2;durP2;ratioP2
48635;SDS011;34429;52.332;5.614;2022-11-20T00:01:35;31.17;;;16.02;;
48635;SDS011;34429;52.332;5.614;2022-11-20T00:04:03;28.17;;;15.35;;
48635;SDS011;34429;52.332;5.614;2022-11-20T00:06:34;30.70;;;15.98;;
48635;SDS011;34429;52.332;5.614;2022-11-20T00:09:02;32.63;;;16.83;;
48635;SDS011;34429;52.332;5.614;2022-11-20T00:11:32;30.73;;;16.38;;
48635;SDS011;34429;52.332;5.614;2022-11-20T00:14:01;33.78;;;16.13;;
48635;SDS011;34429;52.332;5.614;2022-11-20T00:16:30;30.55;;;15.57;;
48635;SDS011;34429;52.332;5.614;2022-11-20T00:18:59;28.83;;;15.43;;
48635;SDS011;34429;52.332;5.614;2022-11-20T00:21:33;32.38;;;18.10;;
48635;SDS011;34429;52.332;5.614;2022-11-20T00:24:02;37.88;;;20.20;;
48635;SDS011;34429;52.332;5.614;2022-11-20T00:26:30;38.45;;;20.38;;
48635;SDS011;34429;52.332;5.614;2022-11-20T00:28:59;37.10;;;20.15;;
48635;SDS011;34429;52.332;5.614;2022-11-20T00:31:29;33.42;;;18.23;;
48635;SDS011;34429;52.332;5.614;2022-11-20T00:33:58;25.50;;;15.73;;
48635;SDS011;34429;52.332;5.614;2022-11-20T00:36:27;31.42;;;16.52;;
48635;SDS011;34429;52.332;5.614;2022-11-20T00:38:59;31.80;;;16.17;;
48635;SDS011;34429;52.332;5.614;2022-11-20T00:41:28;30.75;;;16.35;;
48635;SDS011;34429;52.332;5.614;2022-11-20T00:46:26;32.78;;;16.92;;
48635;SDS011;34429;52.332;5.614;2022-11-20T00:48:55;32.00;;;16.33;;
48635;SDS011;34429;52.332;5.614;2022-11-20T00:51:24;32.88;;;17.08;;
48635;SDS011;34429;52.332;5.614;2022-11-20T00:53:54;34.05;;;17.45;;
48635;SDS011;34429;52.332;5.614;2022-11-20T00:56:28;31.13;;;16.90;;
48635;SDS011;34429;52.332;5.614;2022-11-20T00:58:58;30.25;;;16.95;;
48635;SDS011;34429;52.332;5.614;2022-11-20T01:01:27;34.22;;;18.67;;
48635;SDS011;34429;52.332;5.614;2022-11-20T01:03:57;51.38;;;19.23;;
48635;SDS011;34429;52.332;5.614;2022-11-20T01:06:28;34.78;;;17.63;;
48635;SDS011;34429;52.332;5.614;2022-11-20T01:08:59;37.45;;;17.95;;
48635;SDS011;34429;52.332;5.614;2022-11-20T01:11:35;30.20;;;16.67;;
48635;SDS011;34429;52.332;5.614;2022-11-20T01:14:05;31.83;;;16.90;;
48635;SDS011;34429;52.332;5.614;2022-11-20T01:16:36;29.50;;;16.23;;
48635;SDS011;34429;52.332;5.614;2022-11-20T01:19:06;34.83;;;17.33;;
48635;SDS011;34429;52.332;5.614;2022-11-20T01:21:38;33.53;;;18.40;;
48635;SDS011;34429;52.332;5.614;2022-11-20T01:24:08;35.38;;;18.23;;
48635;SDS011;34429;52.332;5.614;2022-11-20T01:26:42;34.17;;;18.00;;
48635;SDS011;34429;52.332;5.614;2022-11-20T01:29:12;34.85;;;17.60;;
48635;SDS011;34429;52.332;5.614;2022-11-20T01:31:43;33.35;;;18.38;;
48635;SDS011;34429;52.332;5.614;2022-11-20T01:36:41;31.77;;;16.27;;
48635;SDS011;34429;52.332;5.614;2022-11-20T01:39:11;32.53;;;17.45;;
48635;SDS011;34429;52.332;5.614;2022-11-20T01:41:43;33.28;;;17.77;;
48635;SDS011;34429;52.332;5.614;2022-11-20T01:47:14;25.70;;;14.95;;
48635;SDS011;34429;52.332;5.614;2022-11-20T01:49:46;28.83;;;15.38;;
48635;SDS011;34429;52.332;5.614;2022-11-20T01:52:18;24.95;;;14.20;;
48635;SDS011;34429;52.332;5.614;2022-11-20T01:54:52;24.23;;;14.23;;
48635;SDS011;34429;52.332;5.614;2022-11-20T01:57:26;26.73;;;15.27;;
48635;SDS011;34429;52.332;5.614;2022-11-20T02:00:00;26.67;;;14.52;;
48635;SDS011;34429;52.332;5.614;2022-11-20T02:02:34;25.58;;;13.27;;
48635;SDS011;34429;52.332;5.614;2022-11-20T02:05:08;25.85;;;14.27;;
48635;SDS011;34429;52.332;5.614;2022-11-20T02:07:42;26.02;;;13.35;;
48635;SDS011;34429;52.332;5.614;2022-11-20T02:10:11;26.83;;;14.88;;
48635;SDS011;34429;52.332;5.614;2022-11-20T02:12:42;23.65;;;13.40;;
48635;SDS011;34429;52.332;5.614;2022-11-20T02:15:35;24.50;;;13.38;;
48635;SDS011;34429;52.332;5.614;2022-11-20T02:18:04;24.33;;;13.30;;
48635;SDS011;34429;52.332;5.614;2022-11-20T02:20:33;28.42;;;13.02;;
48635;SDS011;34429;52.332;5.614;2022-11-20T02:23:02;26.75;;;12.70;;
48635;SDS011;34429;52.332;5.614;2022-11-20T02:25:39;21.02;;;13.18;;
48635;SDS011;34429;52.332;5.614;2022-11-20T02:28:09;21.80;;;12.30;;
48635;SDS011;34429;52.332;5.614;2022-11-20T02:30:38;23.00;;;12.82;;
48635;SDS011;34429;52.332;5.614;2022-11-20T02:33:06;22.00;;;12.07;;
48635;SDS011;34429;52.332;5.614;2022-11-20T02:35:44;22.65;;;11.70;;
48635;SDS011;34429;52.332;5.614;2022-11-20T02:40:45;26.25;;;12.20;;
48635;SDS011;34429;52.332;5.614;2022-11-20T02:43:15;19.92;;;10.88;;
48635;SDS011;34429;52.332;5.614;2022-11-20T02:45:43;18.98;;;10.98;;
48635;SDS011;34429;52.332;5.614;2022-11-20T02:48:12;21.67;;;10.45;;
48635;SDS011;34429;52.332;5.614;2022-11-20T02:50:40;21.17;;;11.00;;
48635;SDS011;34429;52.332;5.614;2022-11-20T02:53:08;23.83;;;11.80;;
48635;SDS011;34429;52.332;5.614;2022-11-20T02:55:37;20.38;;;10.27;;
48635;SDS011;34429;52.332;5.614;2022-11-20T02:58:08;19.30;;;10.70;;
48635;SDS011;34429;52.332;5.614;2022-11-20T03:00:36;21.20;;;11.18;;
48635;SDS011;34429;52.332;5.614;2022-11-20T03:03:04;18.00;;;10.07;;
48635;SDS011;34429;52.332;5.614;2022-11-20T03:05:39;20.13;;;10.70;;
48635;SDS011;34429;52.332;5.614;2022-11-20T03:08:07;18.30;;;10.30;;
48635;SDS011;34429;52.332;5.614;2022-11-20T03:10:35;20.77;;;11.55;;
48635;SDS011;34429;52.332;5.614;2022-11-20T03:13:04;20.35;;;10.93;;
48635;SDS011;34429;52.332;5.614;2022-11-20T03:15:35;20.33;;;10.38;;
48635;SDS011;34429;52.332;5.614;2022-11-20T03:18:03;18.48;;;10.10;;
48635;SDS011;34429;52.332;5.614;2022-11-20T03:20:32;23.08;;;10.88;;
48635;SDS011;34429;52.332;5.614;2022-11-20T03:23:01;19.23;;;11.07;;
48635;SDS011;34429;52.332;5.614;2022-11-20T03:25:29;22.40;;;11.13;;
48635;SDS011;34429;52.332;5.614;2022-11-20T03:27:58;18.58;;;9.95;;
48635;SDS011;34429;52.332;5.614;2022-11-20T03:30:26;21.92;;;10.40;;
48635;SDS011;34429;52.332;5.614;2022-11-20T03:32:57;19.17;;;10.60;;
48635;SDS011;34429;52.332;5.614;2022-11-20T03:35:25;18.65;;;10.75;;
48635;SDS011;34429;52.332;5.614;2022-11-20T03:37:53;18.70;;;10.18;;
48635;SDS011;34429;52.332;5.614;2022-11-20T03:40:22;18.50;;;9.55;;
48635;SDS011;34429;52.332;5.614;2022-11-20T03:42:50;16.33;;;9.27;;
48635;SDS011;34429;52.332;5.614;2022-11-20T03:45:18;19.30;;;10.05;;
48635;SDS011;34429;52.332;5.614;2022-11-20T03:47:47;18.45;;;10.15;;
48635;SDS011;34429;52.332;5.614;2022-11-20T03:50:19;19.58;;;10.20;;
48635;SDS011;34429;52.332;5.614;2022-11-20T03:52:47;19.27;;;10.35;;
48635;SDS011;34429;52.332;5.614;2022-11-20T03:55:16;17.80;;;9.35;;
48635;SDS011;34429;52.332;5.614;2022-11-20T03:57:44;19.23;;;9.83;;
48635;SDS011;34429;52.332;5.614;2022-11-20T04:00:13;14.93;;;8.95;;
48635;SDS011;34429;52.332;5.614;2022-11-20T04:02:41;20.45;;;10.65;;
48635;SDS011;34429;52.332;5.614;2022-11-20T04:05:10;20.35;;;10.05;;
48635;SDS011;34429;52.332;5.614;2022-11-20T04:07:41;18.90;;;9.52;;
48635;SDS011;34429;52.332;5.614;2022-11-20T04:10:09;18.73;;;9.95;;
48635;SDS011;34429;52.332;5.614;2022-11-20T04:12:37;17.40;;;9.38;;
48635;SDS011;34429;52.332;5.614;2022-11-20T04:15:06;18.00;;;9.85;;
48635;SDS011;34429;52.332;5.614;2022-11-20T04:17:35;16.75;;;10.15;;
48635;SDS011;34429;52.332;5.614;2022-11-20T04:20:04;16.25;;;9.85;;
48635;SDS011;34429;52.332;5.614;2022-11-20T04:22:33;17.70;;;9.60;;
48635;SDS011;34429;52.332;5.614;2022-11-20T04:25:04;16.42;;;9.15;;
48635;SDS011;34429;52.332;5.614;2022-11-20T04:27:33;15.95;;;8.60;;
48635;SDS011;34429;52.332;5.614;2022-11-20T04:30:01;17.75;;;9.43;;
48635;SDS011;34429;52.332;5.614;2022-11-20T04:32:29;18.33;;;10.10;;
48635;SDS011;34429;52.332;5.614;2022-11-20T04:34:58;16.70;;;9.55;;
48635;SDS011;34429;52.332;5.614;2022-11-20T04:37:26;17.65;;;10.00;;
48635;SDS011;34429;52.332;5.614;2022-11-20T04:39:56;17.45;;;9.38;;
48635;SDS011;34429;52.332;5.614;2022-11-20T04:42:27;17.45;;;9.15;;
48635;SDS011;34429;52.332;5.614;2022-11-20T04:44:56;14.43;;;8.18;;
48635;SDS011;34429;52.332;5.614;2022-11-20T04:47:25;16.15;;;8.85;;
48635;SDS011;34429;52.332;5.614;2022-11-20T04:49:53;16.92;;;9.63;;
48635;SDS011;34429;52.332;5.614;2022-11-20T04:52:21;17.73;;;8.50;;
48635;SDS011;34429;52.332;5.614;2022-11-20T04:54:49;18.30;;;9.60;;
48635;SDS011;34429;52.332;5.614;2022-11-20T04:57:18;19.20;;;9.60;;
48635;SDS011;34429;52.332;5.614;2022-11-20T04:59:49;16.83;;;9.52;;
48635;SDS011;34429;52.332;5.614;2022-11-20T05:02:18;18.17;;;9.68;;
48635;SDS011;34429;52.332;5.614;2022-11-20T05:04:46;15.27;;;9.00;;
48635;SDS011;34429;52.332;5.614;2022-11-20T05:07:15;17.05;;;9.13;;
48635;SDS011;34429;52.332;5.614;2022-11-20T05:09:43;18.27;;;9.95;;
48635;SDS011;34429;52.332;5.614;2022-11-20T05:12:12;18.67;;;9.70;;
48635;SDS011;34429;52.332;5.614;2022-11-20T05:14:40;17.90;;;8.73;;
48635;SDS011;34429;52.332;5.614;2022-11-20T05:17:12;15.80;;;8.90;;
48635;SDS011;34429;52.332;5.614;2022-11-20T05:19:40;15.00;;;8.95;;
48635;SDS011;34429;52.332;5.614;2022-11-20T05:22:08;17.48;;;9.98;;
48635;SDS011;34429;52.332;5.614;2022-11-20T05:24:37;15.98;;;9.20;;
48635;SDS011;34429;52.332;5.614;2022-11-20T05:27:05;19.02;;;10.02;;
48635;SDS011;34429;52.332;5.614;2022-11-20T05:29:34;17.35;;;9.25;;
48635;SDS011;34429;52.332;5.614;2022-11-20T05:32:03;17.58;;;8.55;;
48635;SDS011;34429;52.332;5.614;2022-11-20T05:34:37;18.08;;;9.80;;
48635;SDS011;34429;52.332;5.614;2022-11-20T05:37:05;19.80;;;9.73;;
48635;SDS011;34429;52.332;5.614;2022-11-20T05:39:33;16.60;;;9.43;;
48635;SDS011;34429;52.332;5.614;2022-11-20T05:42:02;17.45;;;8.70;;
48635;SDS011;34429;52.332;5.614;2022-11-20T05:44:42;17.80;;;9.55;;
48635;SDS011;34429;52.332;5.614;2022-11-20T05:47:11;19.05;;;9.98;;
48635;SDS011;34429;52.332;5.614;2022-11-20T05:49:42;17.80;;;9.43;;
48635;SDS011;34429;52.332;5.614;2022-11-20T05:52:10;18.45;;;9.07;;
48635;SDS011;34429;52.332;5.614;2022-11-20T05:54:38;18.05;;;10.20;;
48635;SDS011;34429;52.332;5.614;2022-11-20T05:57:07;17.98;;;8.75;;
48635;SDS011;34429;52.332;5.614;2022-11-20T05:59:35;17.30;;;9.07;;
48635;SDS011;34429;52.332;5.614;2022-11-20T06:02:03;17.70;;;8.80;;
48635;SDS011;34429;52.332;5.614;2022-11-20T06:04:31;19.05;;;10.10;;
48635;SDS011;34429;52.332;5.614;2022-11-20T06:07:04;17.55;;;8.93;;
48635;SDS011;34429;52.332;5.614;2022-11-20T06:09:32;19.88;;;10.70;;
48635;SDS011;34429;52.332;5.614;2022-11-20T06:12:01;18.37;;;9.70;;
48635;SDS011;34429;52.332;5.614;2022-11-20T06:14:29;20.02;;;10.10;;
48635;SDS011;34429;52.332;5.614;2022-11-20T06:16:57;18.58;;;9.95;;
48635;SDS011;34429;52.332;5.614;2022-11-20T06:19:26;19.13;;;9.43;;
48635;SDS011;34429;52.332;5.614;2022-11-20T06:21:54;19.20;;;9.82;;
48635;SDS011;34429;52.332;5.614;2022-11-20T06:24:25;18.75;;;10.00;;
48635;SDS011;34429;52.332;5.614;2022-11-20T06:26:53;16.50;;;9.13;;
48635;SDS011;34429;52.332;5.614;2022-11-20T06:29:22;17.70;;;9.15;;
48635;SDS011;34429;52.332;5.614;2022-11-20T06:31:50;15.57;;;8.55;;
48635;SDS011;34429;52.332;5.614;2022-11-20T06:34:19;17.60;;;9.55;;
48635;SDS011;34429;52.332;5.614;2022-11-20T06:36:47;18.27;;;9.95;;
48635;SDS011;34429;52.332;5.614;2022-11-20T06:39:15;19.05;;;9.52;;
48635;SDS011;34429;52.332;5.614;2022-11-20T06:41:46;17.65;;;9.95;;
48635;SDS011;34429;52.332;5.614;2022-11-20T06:44:15;16.00;;;9.13;;
48635;SDS011;34429;52.332;5.614;2022-11-20T06:46:43;17.35;;;8.93;;
48635;SDS011;34429;52.332;5.614;2022-11-20T06:49:11;17.95;;;10.48;;
48635;SDS011;34429;52.332;5.614;2022-11-20T06:51:40;20.65;;;10.75;;
48635;SDS011;34429;52.332;5.614;2022-11-20T06:54:08;17.65;;;10.00;;
48635;SDS011;34429;52.332;5.614;2022-11-20T06:56:36;20.13;;;10.70;;
48635;SDS011;34429;52.332;5.614;2022-11-20T06:59:07;19.77;;;11.35;;
48635;SDS011;34429;52.332;5.614;2022-11-20T07:01:37;21.88;;;10.85;;
48635;SDS011;34429;52.332;5.614;2022-11-20T07:04:06;18.55;;;9.95;;
48635;SDS011;34429;52.332;5.614;2022-11-20T07:06:34;20.13;;;10.60;;
48635;SDS011;34429;52.332;5.614;2022-11-20T07:09:02;18.65;;;10.10;;
48635;SDS011;34429;52.332;5.614;2022-11-20T07:11:31;26.70;;;9.63;;
48635;SDS011;34429;52.332;5.614;2022-11-20T07:13:59;19.13;;;10.38;;
48635;SDS011;34429;52.332;5.614;2022-11-20T07:16:30;20.70;;;10.13;;
48635;SDS011;34429;52.332;5.614;2022-11-20T07:18:58;19.25;;;9.35;;
48635;SDS011;34429;52.332;5.614;2022-11-20T07:21:27;19.07;;;9.77;;
48635;SDS011;34429;52.332;5.614;2022-11-20T07:23:55;18.35;;;9.95;;
48635;SDS011;34429;52.332;5.614;2022-11-20T07:26:24;17.85;;;10.23;;
48635;SDS011;34429;52.332;5.614;2022-11-20T07:28:52;20.42;;;9.80;;
48635;SDS011;34429;52.332;5.614;2022-11-20T07:31:20;22.58;;;10.32;;
48635;SDS011;34429;52.332;5.614;2022-11-20T07:33:55;22.48;;;11.75;;
48635;SDS011;34429;52.332;5.614;2022-11-20T07:36:23;19.77;;;10.20;;
48635;SDS011;34429;52.332;5.614;2022-11-20T07:38:52;21.08;;;10.70;;
48635;SDS011;34429;52.332;5.614;2022-11-20T07:41:20;20.88;;;11.20;;
48635;SDS011;34429;52.332;5.614;2022-11-20T07:43:48;26.90;;;13.32;;
48635;SDS011;34429;52.332;5.614;2022-11-20T07:46:16;21.65;;;11.05;;
48635;SDS011;34429;52.332;5.614;2022-11-20T07:48:45;21.00;;;11.52;;
48635;SDS011;34429;52.332;5.614;2022-11-20T07:51:16;25.52;;;12.77;;
48635;SDS011;34429;52.332;5.614;2022-11-20T07:53:44;22.65;;;11.05;;
48635;SDS011;34429;52.332;5.614;2022-11-20T07:56:12;23.90;;;11.63;;
48635;SDS011;34429;52.332;5.614;2022-11-20T07:58:43;23.48;;;10.73;;
48635;SDS011;34429;52.332;5.614;2022-11-20T08:01:11;22.90;;;10.32;;
48635;SDS011;34429;52.332;5.614;2022-11-20T08:03:39;19.77;;;10.70;;
48635;SDS011;34429;52.332;5.614;2022-11-20T08:06:07;23.50;;;10.77;;
48635;SDS011;34429;52.332;5.614;2022-11-20T08:08:39;23.23;;;11.15;;
48635;SDS011;34429;52.332;5.614;2022-11-20T08:11:07;19.88;;;10.90;;
48635;SDS011;34429;52.332;5.614;2022-11-20T08:13:48;21.95;;;10.60;;
48635;SDS011;34429;52.332;5.614;2022-11-20T08:16:28;27.00;;;12.00;;
48635;SDS011;34429;52.332;5.614;2022-11-20T08:18:57;27.52;;;12.48;;
48635;SDS011;34429;52.332;5.614;2022-11-20T08:21:25;25.23;;;12.43;;
48635;SDS011;34429;52.332;5.614;2022-11-20T08:23:56;23.98;;;12.32;;
48635;SDS011;34429;52.332;5.614;2022-11-20T08:26:24;30.15;;;14.02;;
48635;SDS011;34429;52.332;5.614;2022-11-20T08:28:54;27.02;;;13.45;;
48635;SDS011;34429;52.332;5.614;2022-11-20T08:31:23;23.58;;;12.75;;
48635;SDS011;34429;52.332;5.614;2022-11-20T08:36:21;31.13;;;14.48;;
48635;SDS011;34429;52.332;5.614;2022-11-20T08:38:51;28.05;;;14.50;;
48635;SDS011;34429;52.332;5.614;2022-11-20T08:41:23;28.88;;;14.55;;
48635;SDS011;34429;52.332;5.614;2022-11-20T08:43:52;27.92;;;14.77;;
48635;SDS011;34429;52.332;5.614;2022-11-20T08:46:23;30.52;;;14.93;;
48635;SDS011;34429;52.332;5.614;2022-11-20T08:48:52;29.38;;;14.32;;
48635;SDS011;34429;52.332;5.614;2022-11-20T08:51:21;30.87;;;15.33;;
48635;SDS011;34429;52.332;5.614;2022-11-20T08:53:49;31.10;;;14.25;;
48635;SDS011;34429;52.332;5.614;2022-11-20T08:56:17;27.38;;;13.32;;
48635;SDS011;34429;52.332;5.614;2022-11-20T08:58:49;30.92;;;15.40;;
48635;SDS011;34429;52.332;5.614;2022-11-20T09:01:18;25.15;;;13.85;;
48635;SDS011;34429;52.332;5.614;2022-11-20T09:03:46;28.10;;;15.63;;
48635;SDS011;34429;52.332;5.614;2022-11-20T09:06:15;29.80;;;14.73;;
48635;SDS011;34429;52.332;5.614;2022-11-20T09:08:44;26.45;;;13.65;;
48635;SDS011;34429;52.332;5.614;2022-11-20T09:11:12;33.08;;;15.82;;
48635;SDS011;34429;52.332;5.614;2022-11-20T09:13:40;29.15;;;14.30;;
48635;SDS011;34429;52.332;5.614;2022-11-20T09:16:11;28.88;;;14.93;;
48635;SDS011;34429;52.332;5.614;2022-11-20T09:18:39;25.58;;;13.77;;
48635;SDS011;34429;52.332;5.614;2022-11-20T09:21:09;25.52;;;13.50;;
48635;SDS011;34429;52.332;5.614;2022-11-20T09:23:38;26.23;;;14.60;;
48635;SDS011;34429;52.332;5.614;2022-11-20T09:26:09;24.90;;;12.55;;
48635;SDS011;34429;52.332;5.614;2022-11-20T09:28:39;25.88;;;13.65;;
48635;SDS011;34429;52.332;5.614;2022-11-20T09:31:13;28.67;;;14.77;;
48635;SDS011;34429;52.332;5.614;2022-11-20T09:33:49;27.90;;;12.93;;
48635;SDS011;34429;52.332;5.614;2022-11-20T09:36:18;27.08;;;13.98;;
48635;SDS011;34429;52.332;5.614;2022-11-20T09:38:46;24.85;;;13.82;;
48635;SDS011;34429;52.332;5.614;2022-11-20T09:41:29;25.15;;;14.25;;
48635;SDS011;34429;52.332;5.614;2022-11-20T09:44:07;27.38;;;14.15;;
48635;SDS011;34429;52.332;5.614;2022-11-20T09:46:51;24.33;;;13.38;;
48635;SDS011;34429;52.332;5.614;2022-11-20T09:49:25;25.60;;;13.05;;
48635;SDS011;34429;52.332;5.614;2022-11-20T09:52:01;28.70;;;13.55;;
48635;SDS011;34429;52.332;5.614;2022-11-20T09:54:41;28.98;;;13.98;;
48635;SDS011;34429;52.332;5.614;2022-11-20T09:57:11;24.58;;;13.60;;
48635;SDS011;34429;52.332;5.614;2022-11-20T09:59:43;23.10;;;12.75;;
48635;SDS011;34429;52.332;5.614;2022-11-20T10:02:23;23.40;;;12.80;;
48635;SDS011;34429;52.332;5.614;2022-11-20T10:04:57;25.92;;;12.90;;
48635;SDS011;34429;52.332;5.614;2022-11-20T10:07:40;24.30;;;13.20;;
48635;SDS011;34429;52.332;5.614;2022-11-20T10:10:16;26.02;;;14.00;;
48635;SDS011;34429;52.332;5.614;2022-11-20T10:12:52;25.88;;;13.55;;
48635;SDS011;34429;52.332;5.614;2022-11-20T10:15:32;25.25;;;13.25;;
48635;SDS011;34429;52.332;5.614;2022-11-20T10:18:15;24.05;;;13.68;;
48635;SDS011;34429;52.332;5.614;2022-11-20T10:20:58;28.83;;;12.57;;
48635;SDS011;34429;52.332;5.614;2022-11-20T10:23:46;27.05;;;13.05;;
48635;SDS011;34429;52.332;5.614;2022-11-20T10:26:26;26.27;;;13.70;;
48635;SDS011;34429;52.332;5.614;2022-11-20T10:29:07;25.27;;;13.02;;
48635;SDS011;34429;52.332;5.614;2022-11-20T10:31:40;24.02;;;13.05;;
48635;SDS011;34429;52.332;5.614;2022-11-20T10:34:16;26.92;;;14.05;;
48635;SDS011;34429;52.332;5.614;2022-11-20T10:36:52;24.90;;;13.35;;
48635;SDS011;34429;52.332;5.614;2022-11-20T10:39:25;27.02;;;14.38;;
48635;SDS011;34429;52.332;5.614;2022-11-20T10:42:01;24.75;;;14.07;;
48635;SDS011;34429;52.332;5.614;2022-11-20T10:47:12;26.73;;;14.32;;
48635;SDS011;34429;52.332;5.614;2022-11-20T10:49:45;27.10;;;13.80;;
48635;SDS011;34429;52.332;5.614;2022-11-20T10:52:19;29.48;;;13.80;;
48635;SDS011;34429;52.332;5.614;2022-11-20T10:54:58;27.10;;;13.45;;
48635;SDS011;34429;52.332;5.614;2022-11-20T10:57:38;26.70;;;13.63;;
48635;SDS011;34429;52.332;5.614;2022-11-20T11:00:18;27.08;;;14.18;;
48635;SDS011;34429;52.332;5.614;2022-11-20T11:02:47;28.83;;;14.07;;
48635;SDS011;34429;52.332;5.614;2022-11-20T11:05:24;28.65;;;14.10;;
48635;SDS011;34429;52.332;5.614;2022-11-20T11:08:00;29.83;;;15.25;;
48635;SDS011;34429;52.332;5.614;2022-11-20T11:10:30;29.60;;;15.20;;
48635;SDS011;34429;52.332;5.614;2022-11-20T11:13:07;32.17;;;15.50;;
48635;SDS011;34429;52.332;5.614;2022-11-20T11:18:22;29.95;;;15.80;;
48635;SDS011;34429;52.332;5.614;2022-11-20T11:20:54;31.25;;;14.82;;
48635;SDS011;34429;52.332;5.614;2022-11-20T11:23:29;30.35;;;16.30;;
48635;SDS011;34429;52.332;5.614;2022-11-20T11:26:00;29.83;;;15.18;;
48635;SDS011;34429;52.332;5.614;2022-11-20T11:28:30;33.50;;;16.08;;
48635;SDS011;34429;52.332;5.614;2022-11-20T11:30:59;31.25;;;15.60;;
48635;SDS011;34429;52.332;5.614;2022-11-20T11:33:28;33.03;;;15.52;;
48635;SDS011;34429;52.332;5.614;2022-11-20T11:36:01;34.13;;;16.20;;
48635;SDS011;34429;52.332;5.614;2022-11-20T11:38:34;32.63;;;14.45;;
48635;SDS011;34429;52.332;5.614;2022-11-20T11:41:05;30.95;;;15.23;;
48635;SDS011;34429;52.332;5.614;2022-11-20T11:43:37;32.85;;;14.43;;
48635;SDS011;34429;52.332;5.614;2022-11-20T11:46:24;31.10;;;16.55;;
48635;SDS011;34429;52.332;5.614;2022-11-20T11:48:55;33.85;;;15.43;;
48635;SDS011;34429;52.332;5.614;2022-11-20T11:51:32;36.63;;;16.42;;
48635;SDS011;34429;52.332;5.614;2022-11-20T11:54:11;31.98;;;15.57;;
48635;SDS011;34429;52.332;5.614;2022-11-20T11:56:45;30.53;;;15.37;;
48635;SDS011;34429;52.332;5.614;2022-11-20T11:59:15;36.37;;;16.37;;
48635;SDS011;34429;52.332;5.614;2022-11-20T12:01:54;33.90;;;15.65;;
48635;SDS011;34429;52.332;5.614;2022-11-20T12:04:43;35.20;;;16.52;;
48635;SDS011;34429;52.332;5.614;2022-11-20T12:07:32;38.42;;;15.98;;
48635;SDS011;34429;52.332;5.614;2022-11-20T12:10:12;31.88;;;15.90;;
48635;SDS011;34429;52.332;5.614;2022-11-20T12:12:44;32.05;;;15.82;;
48635;SDS011;34429;52.332;5.614;2022-11-20T12:15:21;29.00;;;15.27;;
48635;SDS011;34429;52.332;5.614;2022-11-20T12:17:54;30.90;;;15.15;;
48635;SDS011;34429;52.332;5.614;2022-11-20T12:20:24;31.55;;;15.52;;
48635;SDS011;34429;52.332;5.614;2022-11-20T12:23:01;28.58;;;14.38;;
48635;SDS011;34429;52.332;5.614;2022-11-20T12:25:36;30.83;;;15.60;;
48635;SDS011;34429;52.332;5.614;2022-11-20T12:28:13;32.63;;;16.48;;
48635;SDS011;34429;52.332;5.614;2022-11-20T12:31:11;28.40;;;14.98;;
48635;SDS011;34429;52.332;5.614;2022-11-20T12:36:41;29.85;;;15.55;;
48635;SDS011;34429;52.332;5.614;2022-11-20T12:39:21;31.92;;;15.23;;
48635;SDS011;34429;52.332;5.614;2022-11-20T12:42:08;32.40;;;15.50;;
48635;SDS011;34429;52.332;5.614;2022-11-20T12:48:27;34.22;;;15.82;;
48635;SDS011;34429;52.332;5.614;2022-11-20T12:51:09;33.10;;;16.02;;
48635;SDS011;34429;52.332;5.614;2022-11-20T12:54:00;31.85;;;15.48;;
48635;SDS011;34429;52.332;5.614;2022-11-20T12:56:46;32.30;;;16.30;;
48635;SDS011;34429;52.332;5.614;2022-11-20T12:59:29;28.15;;;15.85;;
48635;SDS011;34429;52.332;5.614;2022-11-20T13:02:12;30.10;;;15.25;;
48635;SDS011;34429;52.332;5.614;2022-11-20T13:04:59;34.17;;;17.23;;
48635;SDS011;34429;52.332;5.614;2022-11-20T13:07:37;33.50;;;16.58;;
48635;SDS011;34429;52.332;5.614;2022-11-20T13:10:11;33.38;;;15.40;;
48635;SDS011;34429;52.332;5.614;2022-11-20T13:12:47;33.80;;;16.77;;
48635;SDS011;34429;52.332;5.614;2022-11-20T13:15:26;30.27;;;15.38;;
48635;SDS011;34429;52.332;5.614;2022-11-20T13:18:08;32.10;;;16.73;;
48635;SDS011;34429;52.332;5.614;2022-11-20T13:20:42;34.95;;;15.93;;
48635;SDS011;34429;52.332;5.614;2022-11-20T13:23:22;32.72;;;16.77;;
48635;SDS011;34429;52.332;5.614;2022-11-20T13:28:33;29.50;;;15.32;;
48635;SDS011;34429;52.332;5.614;2022-11-20T13:31:05;32.03;;;15.32;;
48635;SDS011;34429;52.332;5.614;2022-11-20T13:33:52;31.77;;;15.38;;
48635;SDS011;34429;52.332;5.614;2022-11-20T13:36:23;31.13;;;16.23;;
48635;SDS011;34429;52.332;5.614;2022-11-20T13:38:55;32.55;;;15.18;;
48635;SDS011;34429;52.332;5.614;2022-11-20T13:41:24;31.02;;;15.32;;
48635;SDS011;34429;52.332;5.614;2022-11-20T13:44:05;34.85;;;14.98;;
48635;SDS011;34429;52.332;5.614;2022-11-20T13:46:39;33.35;;;15.73;;
48635;SDS011;34429;52.332;5.614;2022-11-20T13:49:10;30.10;;;14.68;;
48635;SDS011;34429;52.332;5.614;2022-11-20T13:51:44;26.23;;;13.50;;
48635;SDS011;34429;52.332;5.614;2022-11-20T13:54:22;34.17;;;15.18;;
48635;SDS011;34429;52.332;5.614;2022-11-20T13:57:13;27.13;;;13.93;;
48635;SDS011;34429;52.332;5.614;2022-11-20T14:00:02;30.05;;;14.25;;
48635;SDS011;34429;52.332;5.614;2022-11-20T14:02:37;29.17;;;14.93;;
48635;SDS011;34429;52.332;5.614;2022-11-20T14:05:06;33.95;;;15.50;;
48635;SDS011;34429;52.332;5.614;2022-11-20T14:07:46;29.45;;;14.90;;
48635;SDS011;34429;52.332;5.614;2022-11-20T14:10:20;31.52;;;14.27;;
48635;SDS011;34429;52.332;5.614;2022-11-20T14:12:49;31.85;;;15.15;;
48635;SDS011;34429;52.332;5.614;2022-11-20T14:15:28;27.90;;;14.30;;
48635;SDS011;34429;52.332;5.614;2022-11-20T14:17:57;32.78;;;15.10;;
48635;SDS011;34429;52.332;5.614;2022-11-20T14:20:27;30.23;;;13.93;;
48635;SDS011;34429;52.332;5.614;2022-11-20T14:22:57;28.08;;;13.98;;
48635;SDS011;34429;52.332;5.614;2022-11-20T14:25:26;28.63;;;14.60;;
48635;SDS011;34429;52.332;5.614;2022-11-20T14:27:57;30.05;;;13.75;;
48635;SDS011;34429;52.332;5.614;2022-11-20T14:30:30;33.30;;;15.10;;
48635;SDS011;34429;52.332;5.614;2022-11-20T14:33:07;29.38;;;13.68;;
48635;SDS011;34429;52.332;5.614;2022-11-20T14:35:40;34.50;;;15.52;;
48635;SDS011;34429;52.332;5.614;2022-11-20T14:38:13;32.60;;;14.93;;
48635;SDS011;34429;52.332;5.614;2022-11-20T14:40:43;35.60;;;15.40;;
48635;SDS011;34429;52.332;5.614;2022-11-20T14:43:16;37.73;;;16.20;;
48635;SDS011;34429;52.332;5.614;2022-11-20T14:45:52;31.17;;;14.88;;
48635;SDS011;34429;52.332;5.614;2022-11-20T14:48:26;34.00;;;15.90;;
48635;SDS011;34429;52.332;5.614;2022-11-20T14:50:59;36.03;;;17.10;;
48635;SDS011;34429;52.332;5.614;2022-11-20T14:53:27;34.72;;;16.77;;
48635;SDS011;34429;52.332;5.614;2022-11-20T14:55:56;32.15;;;16.13;;
48635;SDS011;34429;52.332;5.614;2022-11-20T14:58:27;36.33;;;17.20;;
48635;SDS011;34429;52.332;5.614;2022-11-20T15:01:01;33.72;;;17.60;;
48635;SDS011;34429;52.332;5.614;2022-11-20T15:03:32;34.25;;;17.50;;
48635;SDS011;34429;52.332;5.614;2022-11-20T15:06:00;37.60;;;18.50;;
48635;SDS011;34429;52.332;5.614;2022-11-20T15:08:29;39.30;;;19.63;;
48635;SDS011;34429;52.332;5.614;2022-11-20T15:10:57;34.65;;;17.35;;
48635;SDS011;34429;52.332;5.614;2022-11-20T15:13:26;35.10;;;18.65;;
48635;SDS011;34429;52.332;5.614;2022-11-20T15:16:02;35.22;;;17.67;;
48635;SDS011;34429;52.332;5.614;2022-11-20T15:18:32;39.08;;;19.08;;